Jackie Cenac — WDG9141 — position and weather

sailwx.info

Track history (hours):
 
Tides and Currents Weather Stations Pressure Air Temp Water Temp Dewpoint Dewpoint Depression Visibility Wind Speed Wind Dir Waves Ship Positions

Jackie Cenac

Owner: Cenac Marine Services, Houma, LA. More information available from US FCC via Universal Licensing System and Coast Guard Vessel Documentation Center.

Last reported at 2017-Sep-21 21:06 UTC. Time now 2017-Sep-23 04:11 UTC.
Position N 29°46' W 095°06'.

Length 22 m; draft 3.3 m.

Type: Tug. MMSI: 367584740.

Date/timePositionNaut miles runAvg speedWind from/ knotsBaromVisibWave heightAir tempDewpointWater temp
2017-Sep-21 21:06N 29°46' W 095°06'0 1.0
2017-Sep-21 21:00N 29°46' W 095°06'2 2.7
2017-Sep-21 20:25N 29°46' W 095°04'2 0.1
2017-Sep-20 20:13N 29°44' W 095°03'1 3.4
2017-Sep-20 19:48N 29°44' W 095°02'1 4.7
2017-Sep-20 19:30N 29°42' W 095°01'1 2.1
2017-Sep-20 18:58N 29°42' W 095°02'0 0.3
2017-Sep-20 18:21N 29°43' W 095°03'0 0.0
2017-Sep-20 18:00N 29°43' W 095°03'0 0.3
2017-Sep-20 17:20N 29°42' W 095°03'0 0.0
2017-Sep-19 19:22N 29°42' W 095°03'0 0.0
2017-Sep-19 14:45N 29°42' W 095°03'0 0.0
2017-Sep-18 15:39N 29°42' W 095°03'0 0.0
2017-Sep-18 02:01N 29°42' W 095°03'0 0.0
2017-Sep-18 02:01N 29°42' W 095°03'0 0.0
2017-Sep-18 01:29N 29°42' W 095°03'0 0.0
2017-Sep-18 00:59N 29°42' W 095°03'0 0.0
2017-Sep-18 00:29N 29°42' W 095°03'0 0.0
2017-Sep-17 23:55N 29°42' W 095°03'0 0.0
2017-Sep-17 23:25N 29°42' W 095°03'0 0.0
2017-Sep-17 23:01N 29°42' W 095°03'0 0.0
2017-Sep-17 22:27N 29°42' W 095°03'0 0.0
2017-Sep-17 21:58N 29°42' W 095°03'0 0.0
2017-Sep-17 20:32N 29°42' W 095°03'0 0.0
2017-Sep-17 20:25N 29°42' W 095°03'0 0.0
2017-Sep-17 20:00N 29°42' W 095°03'0 0.0
2017-Sep-17 18:55N 29°42' W 095°03'0 0.0
2017-Sep-17 16:45N 29°42' W 095°03'0 0.0
2017-Sep-17 15:23N 29°42' W 095°03'0 0.0
2017-Sep-17 15:00N 29°42' W 095°03'0 0.0
2017-Sep-17 14:30N 29°42' W 095°03'0 0.0
2017-Sep-17 13:57N 29°42' W 095°03'0 0.0
2017-Sep-17 11:20N 29°42' W 095°03'0 0.0
2017-Sep-17 10:32N 29°42' W 095°03'0 0.0
2017-Sep-17 10:15N 29°42' W 095°03'0 0.0
2017-Sep-16 15:17N 29°42' W 095°03'0 0.0
2017-Sep-16 06:10N 29°42' W 095°03'0 0.0
2017-Sep-16 05:59N 29°42' W 095°03'0 0.0
2017-Sep-16 05:05N 29°42' W 095°03'0 0.0
2017-Sep-16 04:54N 29°42' W 095°03'0 0.0
2017-Sep-16 04:21N 29°42' W 095°03'0 0.0
2017-Sep-16 04:00N 29°42' W 095°03'0 0.0
2017-Sep-16 02:19N 29°42' W 095°03'0 0.0
2017-Sep-16 00:19N 29°42' W 095°03'0 0.0
2017-Sep-15 22:40N 29°42' W 095°03'0 0.5
2017-Sep-15 22:30N 29°42' W 095°03'1 2.7
2017-Sep-15 22:00N 29°42' W 095°01'5 4.4
2017-Sep-15 20:46N 29°46' W 095°06'0 0.0
2017-Sep-15 18:34N 29°46' W 095°06'0 0.0
2017-Sep-15 18:27N 29°46' W 095°06'0 0.0
2017-Sep-15 18:00N 29°46' W 095°06'0 0.0
2017-Sep-15 13:09N 29°46' W 095°06'0 0.0
2017-Sep-15 12:59N 29°46' W 095°06'0 0.0
2017-Sep-15 12:29N 29°46' W 095°06'0 0.0
2017-Sep-15 11:45N 29°46' W 095°06'0 0.0
2017-Sep-15 10:45N 29°46' W 095°06'0 0.0
2017-Sep-15 10:30N 29°46' W 095°06'0 0.0
2017-Sep-15 09:25N 29°46' W 095°06'0 0.0
2017-Sep-15 09:00N 29°46' W 095°06'0 0.0
2017-Sep-15 07:07N 29°46' W 095°06'1 0.1
2017-Sep-14 22:56N 29°45' W 095°06'2 4.6
2017-Sep-14 22:30N 29°45' W 095°04'3 5.4
2017-Sep-14 21:57N 29°42' W 095°01'1 2.5
2017-Sep-14 21:28N 29°42' W 095°03'0 0.4
2017-Sep-14 20:55N 29°43' W 095°03'1 2.7
2017-Sep-14 20:28N 29°42' W 095°01'1 3.2
2017-Sep-14 20:00N 29°42' W 094°60'3 6.1
2017-Sep-14 19:31N 29°39' W 094°58'4 6.7
2017-Sep-14 18:59N 29°36' W 094°57'3 6.8
2017-Sep-14 18:30N 29°33' W 094°55'67 1.8
2017-Sep-13 04:12N 30°02' W 093°44'1 6.7
2017-Sep-13 04:00N 30°03' W 093°44'3 5.4
2017-Sep-13 03:30N 30°04' W 093°41'3 5.4
2017-Sep-13 03:01N 30°04' W 093°37'2 4.6
2017-Sep-13 02:30N 30°04' W 093°35'2 3.6
2017-Sep-13 02:01N 30°04' W 093°33'2 3.5
2017-Sep-13 01:31N 30°04' W 093°31'2 4.1
2017-Sep-13 01:00N 30°04' W 093°28'2 3.9
2017-Sep-13 00:31N 30°04' W 093°26'2 3.9
2017-Sep-13 00:01N 30°04' W 093°24'2 3.8
2017-Sep-12 23:31N 30°04' W 093°22'1 2.9
2017-Sep-12 23:01N 30°05' W 093°20'2 3.4
2017-Sep-12 22:30N 30°06' W 093°19'0 0.4
2017-Sep-12 22:00N 30°06' W 093°19'1 2.0
2017-Sep-12 21:31N 30°05' W 093°18'2 4.1
2017-Sep-12 21:01N 30°04' W 093°16'2 3.9
2017-Sep-12 20:30N 30°02' W 093°15'2 4.5
2017-Sep-12 20:00N 30°01' W 093°14'3 5.2
2017-Sep-12 19:31N 29°59' W 093°12'3 5.3
2017-Sep-12 19:01N 29°56' W 093°10'2 4.9
2017-Sep-12 18:30N 29°56' W 093°07'44 3.6
2017-Sep-12 06:09N 29°49' W 092°17'1 3.9
2017-Sep-12 06:01N 29°49' W 092°17'2 4.2
2017-Sep-12 05:29N 29°48' W 092°14'2 3.7
2017-Sep-12 05:01N 29°47' W 092°12'1 3.0
2017-Sep-12 04:31N 29°47' W 092°11'0 0.0
2017-Sep-12 04:00N 29°47' W 092°11'1 2.8
2017-Sep-12 03:30N 29°47' W 092°09'2 4.7
2017-Sep-12 03:00N 29°48' W 092°07'2 4.6
2017-Sep-12 02:30N 29°48' W 092°04'  
Track history (hours):
 
Tides and Currents Weather Stations Pressure Air Temp Water Temp Dewpoint Dewpoint Depression Visibility Wind Speed Wind Dir Waves Ship Positions

Jackie Cenac

Owner: Cenac Marine Services, Houma, LA. More information available from US FCC via Universal Licensing System and Coast Guard Vessel Documentation Center.

Last reported at 2017-Sep-21 21:06 UTC. Time now 2017-Sep-23 04:11 UTC.
Position N 29°46' W 095°06'.

Length 22 m; draft 3.3 m.

Type: Tug. MMSI: 367584740.

Date/timePositionNaut miles runAvg speedWind from/ knotsBaromVisibWave heightAir tempDewpointWater temp
2017-Sep-21 21:06N 29°46' W 095°06'0 1.0
2017-Sep-21 21:00N 29°46' W 095°06'2 2.7
2017-Sep-21 20:25N 29°46' W 095°04'2 0.1
2017-Sep-20 20:13N 29°44' W 095°03'1 3.4
2017-Sep-20 19:48N 29°44' W 095°02'1 4.7
2017-Sep-20 19:30N 29°42' W 095°01'1 2.1
2017-Sep-20 18:58N 29°42' W 095°02'0 0.3
2017-Sep-20 18:21N 29°43' W 095°03'0 0.0
2017-Sep-20 18:00N 29°43' W 095°03'0 0.3
2017-Sep-20 17:20N 29°42' W 095°03'0 0.0
2017-Sep-19 19:22N 29°42' W 095°03'0 0.0
2017-Sep-19 14:45N 29°42' W 095°03'0 0.0
2017-Sep-18 15:39N 29°42' W 095°03'0 0.0
2017-Sep-18 02:01N 29°42' W 095°03'0 0.0
2017-Sep-18 02:01N 29°42' W 095°03'0 0.0
2017-Sep-18 01:29N 29°42' W 095°03'0 0.0
2017-Sep-18 00:59N 29°42' W 095°03'0 0.0
2017-Sep-18 00:29N 29°42' W 095°03'0 0.0
2017-Sep-17 23:55N 29°42' W 095°03'0 0.0
2017-Sep-17 23:25N 29°42' W 095°03'0 0.0
2017-Sep-17 23:01N 29°42' W 095°03'0 0.0
2017-Sep-17 22:27N 29°42' W 095°03'0 0.0
2017-Sep-17 21:58N 29°42' W 095°03'0 0.0
2017-Sep-17 20:32N 29°42' W 095°03'0 0.0
2017-Sep-17 20:25N 29°42' W 095°03'0 0.0
2017-Sep-17 20:00N 29°42' W 095°03'0 0.0
2017-Sep-17 18:55N 29°42' W 095°03'0 0.0
2017-Sep-17 16:45N 29°42' W 095°03'0 0.0
2017-Sep-17 15:23N 29°42' W 095°03'0 0.0
2017-Sep-17 15:00N 29°42' W 095°03'0 0.0
2017-Sep-17 14:30N 29°42' W 095°03'0 0.0
2017-Sep-17 13:57N 29°42' W 095°03'0 0.0
2017-Sep-17 11:20N 29°42' W 095°03'0 0.0
2017-Sep-17 10:32N 29°42' W 095°03'0 0.0
2017-Sep-17 10:15N 29°42' W 095°03'0 0.0
2017-Sep-16 15:17N 29°42' W 095°03'0 0.0
2017-Sep-16 06:10N 29°42' W 095°03'0 0.0
2017-Sep-16 05:59N 29°42' W 095°03'0 0.0
2017-Sep-16 05:05N 29°42' W 095°03'0 0.0
2017-Sep-16 04:54N 29°42' W 095°03'0 0.0
2017-Sep-16 04:21N 29°42' W 095°03'0 0.0
2017-Sep-16 04:00N 29°42' W 095°03'0 0.0
2017-Sep-16 02:19N 29°42' W 095°03'0 0.0
2017-Sep-16 00:19N 29°42' W 095°03'0 0.0
2017-Sep-15 22:40N 29°42' W 095°03'0 0.5
2017-Sep-15 22:30N 29°42' W 095°03'1 2.7
2017-Sep-15 22:00N 29°42' W 095°01'5 4.4
2017-Sep-15 20:46N 29°46' W 095°06'0 0.0
2017-Sep-15 18:34N 29°46' W 095°06'0 0.0
2017-Sep-15 18:27N 29°46' W 095°06'0 0.0
2017-Sep-15 18:00N 29°46' W 095°06'0 0.0
2017-Sep-15 13:09N 29°46' W 095°06'0 0.0
2017-Sep-15 12:59N 29°46' W 095°06'0 0.0
2017-Sep-15 12:29N 29°46' W 095°06'0 0.0
2017-Sep-15 11:45N 29°46' W 095°06'0 0.0
2017-Sep-15 10:45N 29°46' W 095°06'0 0.0
2017-Sep-15 10:30N 29°46' W 095°06'0 0.0
2017-Sep-15 09:25N 29°46' W 095°06'0 0.0
2017-Sep-15 09:00N 29°46' W 095°06'0 0.0
2017-Sep-15 07:07N 29°46' W 095°06'1 0.1
2017-Sep-14 22:56N 29°45' W 095°06'2 4.6
2017-Sep-14 22:30N 29°45' W 095°04'3 5.4
2017-Sep-14 21:57N 29°42' W 095°01'1 2.5
2017-Sep-14 21:28N 29°42' W 095°03'0 0.4
2017-Sep-14 20:55N 29°43' W 095°03'1 2.7
2017-Sep-14 20:28N 29°42' W 095°01'1 3.2
2017-Sep-14 20:00N 29°42' W 094°60'3 6.1
2017-Sep-14 19:31N 29°39' W 094°58'4 6.7
2017-Sep-14 18:59N 29°36' W 094°57'3 6.8
2017-Sep-14 18:30N 29°33' W 094°55'67 1.8
2017-Sep-13 04:12N 30°02' W 093°44'1 6.7
2017-Sep-13 04:00N 30°03' W 093°44'3 5.4
2017-Sep-13 03:30N 30°04' W 093°41'3 5.4
2017-Sep-13 03:01N 30°04' W 093°37'2 4.6
2017-Sep-13 02:30N 30°04' W 093°35'2 3.6
2017-Sep-13 02:01N 30°04' W 093°33'2 3.5
2017-Sep-13 01:31N 30°04' W 093°31'2 4.1
2017-Sep-13 01:00N 30°04' W 093°28'2 3.9
2017-Sep-13 00:31N 30°04' W 093°26'2 3.9
2017-Sep-13 00:01N 30°04' W 093°24'2 3.8
2017-Sep-12 23:31N 30°04' W 093°22'1 2.9
2017-Sep-12 23:01N 30°05' W 093°20'2 3.4
2017-Sep-12 22:30N 30°06' W 093°19'0 0.4
2017-Sep-12 22:00N 30°06' W 093°19'1 2.0
2017-Sep-12 21:31N 30°05' W 093°18'2 4.1
2017-Sep-12 21:01N 30°04' W 093°16'2 3.9
2017-Sep-12 20:30N 30°02' W 093°15'2 4.5
2017-Sep-12 20:00N 30°01' W 093°14'3 5.2
2017-Sep-12 19:31N 29°59' W 093°12'3 5.3
2017-Sep-12 19:01N 29°56' W 093°10'2 4.9
2017-Sep-12 18:30N 29°56' W 093°07'44 3.6
2017-Sep-12 06:09N 29°49' W 092°17'1 3.9
2017-Sep-12 06:01N 29°49' W 092°17'2 4.2
2017-Sep-12 05:29N 29°48' W 092°14'2 3.7
2017-Sep-12 05:01N 29°47' W 092°12'1 3.0
2017-Sep-12 04:31N 29°47' W 092°11'0 0.0
2017-Sep-12 04:00N 29°47' W 092°11'1 2.8
2017-Sep-12 03:30N 29°47' W 092°09'2 4.7
2017-Sep-12 03:00N 29°48' W 092°07'2 4.6
2017-Sep-12 02:30N 29°48' W 092°04'  

Dump ship's entire track history